sensor_id;sensor_type;location;lat;lon;timestamp;P1;durP1;ratioP1;P2;durP2;ratioP2
75450;SDS011;64029;48.244;9.188;2023-02-11T00:02:19;30.37;;;17.40;;
75450;SDS011;64029;48.244;9.188;2023-02-11T00:04:47;38.37;;;20.27;;
75450;SDS011;64029;48.244;9.188;2023-02-11T00:07:14;40.17;;;21.20;;
75450;SDS011;64029;48.244;9.188;2023-02-11T00:09:42;37.87;;;20.03;;
75450;SDS011;64029;48.244;9.188;2023-02-11T00:12:09;39.30;;;21.23;;
75450;SDS011;64029;48.244;9.188;2023-02-11T00:14:36;38.67;;;22.97;;
75450;SDS011;64029;48.244;9.188;2023-02-11T00:17:02;39.37;;;21.20;;
75450;SDS011;64029;48.244;9.188;2023-02-11T00:19:29;35.83;;;20.77;;
75450;SDS011;64029;48.244;9.188;2023-02-11T00:21:56;35.20;;;18.73;;
75450;SDS011;64029;48.244;9.188;2023-02-11T00:24:23;35.17;;;20.30;;
75450;SDS011;64029;48.244;9.188;2023-02-11T00:26:51;33.77;;;18.57;;
75450;SDS011;64029;48.244;9.188;2023-02-11T00:29:18;30.73;;;17.57;;
75450;SDS011;64029;48.244;9.188;2023-02-11T00:31:45;31.50;;;17.90;;
75450;SDS011;64029;48.244;9.188;2023-02-11T00:34:11;32.83;;;19.23;;
75450;SDS011;64029;48.244;9.188;2023-02-11T00:36:38;32.43;;;18.27;;
75450;SDS011;64029;48.244;9.188;2023-02-11T00:39:05;33.17;;;18.40;;
75450;SDS011;64029;48.244;9.188;2023-02-11T00:41:32;37.07;;;18.73;;
75450;SDS011;64029;48.244;9.188;2023-02-11T00:44:00;36.60;;;18.90;;
75450;SDS011;64029;48.244;9.188;2023-02-11T00:46:28;39.47;;;20.23;;
75450;SDS011;64029;48.244;9.188;2023-02-11T00:48:55;41.50;;;20.43;;
75450;SDS011;64029;48.244;9.188;2023-02-11T00:51:22;36.67;;;19.07;;
75450;SDS011;64029;48.244;9.188;2023-02-11T00:53:49;36.80;;;19.57;;
75450;SDS011;64029;48.244;9.188;2023-02-11T00:56:16;35.07;;;19.60;;
75450;SDS011;64029;48.244;9.188;2023-02-11T00:58:43;32.13;;;19.90;;
75450;SDS011;64029;48.244;9.188;2023-02-11T01:01:11;37.00;;;19.80;;
75450;SDS011;64029;48.244;9.188;2023-02-11T01:03:38;34.10;;;19.20;;
75450;SDS011;64029;48.244;9.188;2023-02-11T01:06:06;42.13;;;20.77;;
75450;SDS011;64029;48.244;9.188;2023-02-11T01:08:34;40.63;;;20.47;;
75450;SDS011;64029;48.244;9.188;2023-02-11T01:11:03;37.70;;;19.40;;
75450;SDS011;64029;48.244;9.188;2023-02-11T01:13:31;38.60;;;21.53;;
75450;SDS011;64029;48.244;9.188;2023-02-11T01:15:59;41.10;;;21.10;;
75450;SDS011;64029;48.244;9.188;2023-02-11T01:18:28;30.63;;;17.87;;
75450;SDS011;64029;48.244;9.188;2023-02-11T01:20:54;30.47;;;15.97;;
75450;SDS011;64029;48.244;9.188;2023-02-11T01:23:21;33.70;;;18.10;;
75450;SDS011;64029;48.244;9.188;2023-02-11T01:25:48;30.93;;;16.80;;
75450;SDS011;64029;48.244;9.188;2023-02-11T01:28:15;32.07;;;18.60;;
75450;SDS011;64029;48.244;9.188;2023-02-11T01:30:43;36.67;;;19.67;;
75450;SDS011;64029;48.244;9.188;2023-02-11T01:33:10;32.03;;;17.13;;
75450;SDS011;64029;48.244;9.188;2023-02-11T01:35:38;30.93;;;16.33;;
75450;SDS011;64029;48.244;9.188;2023-02-11T01:38:06;31.93;;;15.90;;
75450;SDS011;64029;48.244;9.188;2023-02-11T01:40:39;28.03;;;15.30;;
75450;SDS011;64029;48.244;9.188;2023-02-11T01:43:05;35.73;;;18.07;;
75450;SDS011;64029;48.244;9.188;2023-02-11T01:48:30;30.30;;;16.20;;
75450;SDS011;64029;48.244;9.188;2023-02-11T01:51:01;27.90;;;15.80;;
75450;SDS011;64029;48.244;9.188;2023-02-11T01:53:32;31.17;;;16.50;;
75450;SDS011;64029;48.244;9.188;2023-02-11T01:56:18;29.00;;;15.40;;
75450;SDS011;64029;48.244;9.188;2023-02-11T01:59:04;30.10;;;15.23;;
75450;SDS011;64029;48.244;9.188;2023-02-11T02:01:35;31.87;;;16.10;;
75450;SDS011;64029;48.244;9.188;2023-02-11T02:04:03;23.73;;;15.17;;
75450;SDS011;64029;48.244;9.188;2023-02-11T02:06:36;32.73;;;17.27;;
75450;SDS011;64029;48.244;9.188;2023-02-11T02:09:08;32.20;;;15.63;;
75450;SDS011;64029;48.244;9.188;2023-02-11T02:11:41;33.70;;;17.60;;
75450;SDS011;64029;48.244;9.188;2023-02-11T02:14:08;31.13;;;17.47;;
75450;SDS011;64029;48.244;9.188;2023-02-11T02:16:35;30.00;;;16.03;;
75450;SDS011;64029;48.244;9.188;2023-02-11T02:19:10;30.97;;;15.60;;
75450;SDS011;64029;48.244;9.188;2023-02-11T02:25:04;34.53;;;17.03;;
75450;SDS011;64029;48.244;9.188;2023-02-11T02:27:54;31.33;;;17.80;;
75450;SDS011;64029;48.244;9.188;2023-02-11T02:30:41;28.20;;;15.27;;
75450;SDS011;64029;48.244;9.188;2023-02-11T02:33:24;29.17;;;16.30;;
75450;SDS011;64029;48.244;9.188;2023-02-11T02:36:02;30.90;;;16.20;;
75450;SDS011;64029;48.244;9.188;2023-02-11T02:38:35;24.67;;;16.37;;
75450;SDS011;64029;48.244;9.188;2023-02-11T02:41:06;28.47;;;16.37;;
75450;SDS011;64029;48.244;9.188;2023-02-11T02:43:35;32.20;;;16.50;;
75450;SDS011;64029;48.244;9.188;2023-02-11T02:46:09;36.50;;;16.40;;
75450;SDS011;64029;48.244;9.188;2023-02-11T02:48:42;32.00;;;16.87;;
75450;SDS011;64029;48.244;9.188;2023-02-11T02:51:14;29.90;;;15.63;;
75450;SDS011;64029;48.244;9.188;2023-02-11T02:53:54;29.50;;;15.23;;
75450;SDS011;64029;48.244;9.188;2023-02-11T02:56:31;28.90;;;15.50;;
75450;SDS011;64029;48.244;9.188;2023-02-11T03:01:54;29.23;;;15.40;;
75450;SDS011;64029;48.244;9.188;2023-02-11T03:04:33;29.20;;;15.10;;
75450;SDS011;64029;48.244;9.188;2023-02-11T03:07:04;27.30;;;13.93;;
75450;SDS011;64029;48.244;9.188;2023-02-11T03:09:36;32.43;;;15.90;;
75450;SDS011;64029;48.244;9.188;2023-02-11T03:12:07;31.57;;;14.60;;
75450;SDS011;64029;48.244;9.188;2023-02-11T03:14:37;40.13;;;20.47;;
75450;SDS011;64029;48.244;9.188;2023-02-11T03:17:05;47.77;;;24.23;;
75450;SDS011;64029;48.244;9.188;2023-02-11T03:19:36;55.07;;;26.83;;
75450;SDS011;64029;48.244;9.188;2023-02-11T03:22:07;37.37;;;19.47;;
75450;SDS011;64029;48.244;9.188;2023-02-11T03:24:38;37.60;;;17.33;;
75450;SDS011;64029;48.244;9.188;2023-02-11T03:27:08;27.87;;;17.00;;
75450;SDS011;64029;48.244;9.188;2023-02-11T03:29:42;27.00;;;14.67;;
75450;SDS011;64029;48.244;9.188;2023-02-11T03:32:16;30.27;;;14.40;;
75450;SDS011;64029;48.244;9.188;2023-02-11T03:34:51;26.33;;;14.40;;
75450;SDS011;64029;48.244;9.188;2023-02-11T03:37:23;26.07;;;15.10;;
75450;SDS011;64029;48.244;9.188;2023-02-11T03:39:54;24.77;;;13.73;;
75450;SDS011;64029;48.244;9.188;2023-02-11T03:42:25;25.93;;;14.97;;
75450;SDS011;64029;48.244;9.188;2023-02-11T03:44:57;33.80;;;16.47;;
75450;SDS011;64029;48.244;9.188;2023-02-11T03:47:29;30.00;;;16.03;;
75450;SDS011;64029;48.244;9.188;2023-02-11T03:49:59;32.20;;;15.63;;
75450;SDS011;64029;48.244;9.188;2023-02-11T03:52:29;33.53;;;17.63;;
75450;SDS011;64029;48.244;9.188;2023-02-11T03:54:57;31.90;;;16.40;;
75450;SDS011;64029;48.244;9.188;2023-02-11T03:57:25;38.13;;;13.77;;
75450;SDS011;64029;48.244;9.188;2023-02-11T03:59:53;27.43;;;14.80;;
75450;SDS011;64029;48.244;9.188;2023-02-11T04:02:21;33.63;;;16.97;;
75450;SDS011;64029;48.244;9.188;2023-02-11T04:04:52;27.47;;;14.97;;
75450;SDS011;64029;48.244;9.188;2023-02-11T04:07:20;30.50;;;16.27;;
75450;SDS011;64029;48.244;9.188;2023-02-11T04:09:47;29.93;;;16.30;;
75450;SDS011;64029;48.244;9.188;2023-02-11T04:12:14;30.40;;;16.00;;
75450;SDS011;64029;48.244;9.188;2023-02-11T04:14:40;33.73;;;17.20;;
75450;SDS011;64029;48.244;9.188;2023-02-11T04:17:07;36.43;;;18.60;;
75450;SDS011;64029;48.244;9.188;2023-02-11T04:19:34;33.03;;;18.13;;
75450;SDS011;64029;48.244;9.188;2023-02-11T04:22:01;32.90;;;16.80;;
75450;SDS011;64029;48.244;9.188;2023-02-11T04:24:30;31.00;;;15.67;;
75450;SDS011;64029;48.244;9.188;2023-02-11T04:26:57;34.37;;;15.97;;
75450;SDS011;64029;48.244;9.188;2023-02-11T04:29:24;30.43;;;14.90;;
75450;SDS011;64029;48.244;9.188;2023-02-11T04:31:52;31.23;;;15.67;;
75450;SDS011;64029;48.244;9.188;2023-02-11T04:34:20;29.50;;;14.37;;
75450;SDS011;64029;48.244;9.188;2023-02-11T04:36:47;24.80;;;13.40;;
75450;SDS011;64029;48.244;9.188;2023-02-11T04:39:14;30.33;;;14.00;;
75450;SDS011;64029;48.244;9.188;2023-02-11T04:41:42;26.63;;;14.17;;
75450;SDS011;64029;48.244;9.188;2023-02-11T04:44:09;24.80;;;14.87;;
75450;SDS011;64029;48.244;9.188;2023-02-11T04:46:35;25.53;;;14.17;;
75450;SDS011;64029;48.244;9.188;2023-02-11T04:49:02;31.53;;;14.47;;
75450;SDS011;64029;48.244;9.188;2023-02-11T04:51:29;31.63;;;15.33;;
75450;SDS011;64029;48.244;9.188;2023-02-11T04:53:56;28.10;;;15.20;;
75450;SDS011;64029;48.244;9.188;2023-02-11T04:56:23;32.87;;;14.90;;
75450;SDS011;64029;48.244;9.188;2023-02-11T04:58:51;29.07;;;15.20;;
75450;SDS011;64029;48.244;9.188;2023-02-11T05:01:18;30.50;;;15.20;;
75450;SDS011;64029;48.244;9.188;2023-02-11T05:03:45;27.50;;;13.80;;
75450;SDS011;64029;48.244;9.188;2023-02-11T05:06:12;31.27;;;16.37;;
75450;SDS011;64029;48.244;9.188;2023-02-11T05:08:38;25.13;;;14.30;;
75450;SDS011;64029;48.244;9.188;2023-02-11T05:11:06;25.23;;;14.80;;
75450;SDS011;64029;48.244;9.188;2023-02-11T05:13:33;28.70;;;15.27;;
75450;SDS011;64029;48.244;9.188;2023-02-11T05:16:02;33.83;;;15.20;;
75450;SDS011;64029;48.244;9.188;2023-02-11T05:18:29;29.80;;;15.43;;
75450;SDS011;64029;48.244;9.188;2023-02-11T05:20:56;27.23;;;13.40;;
75450;SDS011;64029;48.244;9.188;2023-02-11T05:23:23;43.00;;;16.50;;
75450;SDS011;64029;48.244;9.188;2023-02-11T05:25:50;35.17;;;16.13;;
75450;SDS011;64029;48.244;9.188;2023-02-11T05:28:17;31.43;;;16.33;;
75450;SDS011;64029;48.244;9.188;2023-02-11T05:30:43;31.90;;;15.63;;
75450;SDS011;64029;48.244;9.188;2023-02-11T05:33:12;31.17;;;15.87;;
75450;SDS011;64029;48.244;9.188;2023-02-11T05:35:38;30.23;;;15.70;;
75450;SDS011;64029;48.244;9.188;2023-02-11T05:38:05;26.03;;;15.33;;
75450;SDS011;64029;48.244;9.188;2023-02-11T05:40:32;26.87;;;14.70;;
75450;SDS011;64029;48.244;9.188;2023-02-11T05:42:59;30.67;;;16.50;;
75450;SDS011;64029;48.244;9.188;2023-02-11T05:45:26;34.97;;;15.87;;
75450;SDS011;64029;48.244;9.188;2023-02-11T05:47:53;34.03;;;16.90;;
75450;SDS011;64029;48.244;9.188;2023-02-11T05:50:21;31.73;;;16.30;;
75450;SDS011;64029;48.244;9.188;2023-02-11T05:52:48;34.97;;;17.27;;
75450;SDS011;64029;48.244;9.188;2023-02-11T05:55:15;30.67;;;16.00;;
75450;SDS011;64029;48.244;9.188;2023-02-11T05:57:42;25.80;;;15.27;;
75450;SDS011;64029;48.244;9.188;2023-02-11T06:00:09;28.10;;;14.87;;
75450;SDS011;64029;48.244;9.188;2023-02-11T06:02:37;27.43;;;14.27;;
75450;SDS011;64029;48.244;9.188;2023-02-11T06:05:04;29.13;;;15.97;;
75450;SDS011;64029;48.244;9.188;2023-02-11T06:07:32;29.17;;;15.20;;
75450;SDS011;64029;48.244;9.188;2023-02-11T06:09:59;28.67;;;15.10;;
75450;SDS011;64029;48.244;9.188;2023-02-11T06:12:26;31.93;;;15.40;;
75450;SDS011;64029;48.244;9.188;2023-02-11T06:14:53;28.40;;;15.53;;
75450;SDS011;64029;48.244;9.188;2023-02-11T06:17:19;36.47;;;15.23;;
75450;SDS011;64029;48.244;9.188;2023-02-11T06:19:47;27.80;;;15.97;;
75450;SDS011;64029;48.244;9.188;2023-02-11T06:22:14;34.13;;;17.27;;
75450;SDS011;64029;48.244;9.188;2023-02-11T06:24:42;33.07;;;18.30;;
75450;SDS011;64029;48.244;9.188;2023-02-11T06:27:09;41.67;;;19.80;;
75450;SDS011;64029;48.244;9.188;2023-02-11T06:29:36;34.63;;;17.73;;
75450;SDS011;64029;48.244;9.188;2023-02-11T06:32:02;33.37;;;16.90;;
75450;SDS011;64029;48.244;9.188;2023-02-11T06:34:29;29.87;;;15.53;;
75450;SDS011;64029;48.244;9.188;2023-02-11T06:36:56;26.60;;;14.27;;
75450;SDS011;64029;48.244;9.188;2023-02-11T06:39:23;34.87;;;16.27;;
75450;SDS011;64029;48.244;9.188;2023-02-11T06:41:51;30.97;;;15.13;;
75450;SDS011;64029;48.244;9.188;2023-02-11T06:44:18;31.13;;;15.00;;
75450;SDS011;64029;48.244;9.188;2023-02-11T06:46:45;29.30;;;15.43;;
75450;SDS011;64029;48.244;9.188;2023-02-11T06:49:11;35.00;;;16.93;;
75450;SDS011;64029;48.244;9.188;2023-02-11T06:51:38;30.33;;;17.57;;
75450;SDS011;64029;48.244;9.188;2023-02-11T06:54:05;42.60;;;20.30;;
75450;SDS011;64029;48.244;9.188;2023-02-11T06:56:32;35.07;;;17.20;;
75450;SDS011;64029;48.244;9.188;2023-02-11T06:59:02;36.77;;;19.37;;
75450;SDS011;64029;48.244;9.188;2023-02-11T07:01:29;36.07;;;20.67;;
75450;SDS011;64029;48.244;9.188;2023-02-11T07:03:55;35.03;;;19.50;;
75450;SDS011;64029;48.244;9.188;2023-02-11T07:06:23;39.73;;;19.80;;
75450;SDS011;64029;48.244;9.188;2023-02-11T07:08:52;44.93;;;21.00;;
75450;SDS011;64029;48.244;9.188;2023-02-11T07:11:19;37.47;;;19.77;;
75450;SDS011;64029;48.244;9.188;2023-02-11T07:13:48;40.47;;;20.87;;
75450;SDS011;64029;48.244;9.188;2023-02-11T07:16:18;39.53;;;20.67;;
75450;SDS011;64029;48.244;9.188;2023-02-11T07:18:45;41.87;;;22.00;;
75450;SDS011;64029;48.244;9.188;2023-02-11T07:21:14;40.70;;;19.70;;
75450;SDS011;64029;48.244;9.188;2023-02-11T07:23:42;38.90;;;21.00;;
75450;SDS011;64029;48.244;9.188;2023-02-11T07:26:10;44.27;;;22.67;;
75450;SDS011;64029;48.244;9.188;2023-02-11T07:28:38;40.87;;;20.27;;
75450;SDS011;64029;48.244;9.188;2023-02-11T07:31:06;39.03;;;20.77;;
75450;SDS011;64029;48.244;9.188;2023-02-11T07:33:35;41.87;;;21.33;;
75450;SDS011;64029;48.244;9.188;2023-02-11T07:36:03;37.53;;;21.50;;
75450;SDS011;64029;48.244;9.188;2023-02-11T07:38:31;36.37;;;18.27;;
75450;SDS011;64029;48.244;9.188;2023-02-11T07:40:58;38.87;;;20.77;;
75450;SDS011;64029;48.244;9.188;2023-02-11T07:43:26;39.10;;;21.30;;
75450;SDS011;64029;48.244;9.188;2023-02-11T07:45:53;35.90;;;21.33;;
75450;SDS011;64029;48.244;9.188;2023-02-11T07:48:19;37.80;;;19.63;;
75450;SDS011;64029;48.244;9.188;2023-02-11T07:50:48;50.43;;;27.80;;
75450;SDS011;64029;48.244;9.188;2023-02-11T07:53:15;45.90;;;22.87;;
75450;SDS011;64029;48.244;9.188;2023-02-11T07:55:42;47.47;;;23.53;;
75450;SDS011;64029;48.244;9.188;2023-02-11T07:58:09;41.03;;;22.43;;
75450;SDS011;64029;48.244;9.188;2023-02-11T08:00:36;43.20;;;24.13;;
75450;SDS011;64029;48.244;9.188;2023-02-11T08:03:02;38.87;;;21.50;;
75450;SDS011;64029;48.244;9.188;2023-02-11T08:05:31;42.70;;;22.70;;
75450;SDS011;64029;48.244;9.188;2023-02-11T08:08:00;38.37;;;21.90;;
75450;SDS011;64029;48.244;9.188;2023-02-11T08:10:26;39.03;;;21.17;;
75450;SDS011;64029;48.244;9.188;2023-02-11T08:12:53;36.77;;;20.63;;
75450;SDS011;64029;48.244;9.188;2023-02-11T08:15:20;42.37;;;20.50;;
75450;SDS011;64029;48.244;9.188;2023-02-11T08:17:47;34.00;;;19.67;;
75450;SDS011;64029;48.244;9.188;2023-02-11T08:20:13;44.50;;;22.37;;
75450;SDS011;64029;48.244;9.188;2023-02-11T08:22:41;42.13;;;20.00;;
75450;SDS011;64029;48.244;9.188;2023-02-11T08:25:09;42.27;;;20.07;;
75450;SDS011;64029;48.244;9.188;2023-02-11T08:27:35;35.97;;;18.00;;
75450;SDS011;64029;48.244;9.188;2023-02-11T08:30:03;34.83;;;18.87;;
75450;SDS011;64029;48.244;9.188;2023-02-11T08:32:30;27.00;;;15.87;;
75450;SDS011;64029;48.244;9.188;2023-02-11T08:34:59;31.47;;;17.70;;
75450;SDS011;64029;48.244;9.188;2023-02-11T08:37:26;35.40;;;17.90;;
75450;SDS011;64029;48.244;9.188;2023-02-11T08:39:53;25.87;;;15.47;;
75450;SDS011;64029;48.244;9.188;2023-02-11T08:42:21;27.97;;;16.40;;
75450;SDS011;64029;48.244;9.188;2023-02-11T08:44:48;31.97;;;18.20;;
75450;SDS011;64029;48.244;9.188;2023-02-11T08:47:15;40.90;;;21.10;;
75450;SDS011;64029;48.244;9.188;2023-02-11T08:49:42;36.90;;;21.50;;
75450;SDS011;64029;48.244;9.188;2023-02-11T08:52:09;38.27;;;23.10;;
75450;SDS011;64029;48.244;9.188;2023-02-11T08:54:36;54.33;;;29.90;;
75450;SDS011;64029;48.244;9.188;2023-02-11T08:57:03;53.20;;;27.10;;
75450;SDS011;64029;48.244;9.188;2023-02-11T08:59:31;59.57;;;28.73;;
75450;SDS011;64029;48.244;9.188;2023-02-11T09:01:58;47.83;;;26.97;;
75450;SDS011;64029;48.244;9.188;2023-02-11T09:04:25;53.77;;;27.90;;
75450;SDS011;64029;48.244;9.188;2023-02-11T09:06:52;46.03;;;26.30;;
75450;SDS011;64029;48.244;9.188;2023-02-11T09:09:19;42.00;;;24.43;;
75450;SDS011;64029;48.244;9.188;2023-02-11T09:11:46;38.07;;;23.77;;
75450;SDS011;64029;48.244;9.188;2023-02-11T09:14:14;46.67;;;24.20;;
75450;SDS011;64029;48.244;9.188;2023-02-11T09:16:44;46.77;;;24.17;;
75450;SDS011;64029;48.244;9.188;2023-02-11T09:19:11;41.67;;;22.37;;
75450;SDS011;64029;48.244;9.188;2023-02-11T09:21:38;45.53;;;24.43;;
75450;SDS011;64029;48.244;9.188;2023-02-11T09:24:05;51.73;;;24.07;;
75450;SDS011;64029;48.244;9.188;2023-02-11T09:26:33;47.63;;;25.20;;
75450;SDS011;64029;48.244;9.188;2023-02-11T09:29:01;50.93;;;24.13;;
75450;SDS011;64029;48.244;9.188;2023-02-11T09:31:29;48.50;;;24.70;;
75450;SDS011;64029;48.244;9.188;2023-02-11T09:34:00;49.53;;;24.67;;
75450;SDS011;64029;48.244;9.188;2023-02-11T09:36:29;54.13;;;26.10;;
75450;SDS011;64029;48.244;9.188;2023-02-11T09:38:59;42.03;;;23.97;;
75450;SDS011;64029;48.244;9.188;2023-02-11T09:41:41;51.00;;;28.63;;
75450;SDS011;64029;48.244;9.188;2023-02-11T09:44:30;42.03;;;23.23;;
75450;SDS011;64029;48.244;9.188;2023-02-11T09:46:59;41.70;;;23.00;;
75450;SDS011;64029;48.244;9.188;2023-02-11T09:49:32;42.37;;;22.10;;
75450;SDS011;64029;48.244;9.188;2023-02-11T09:52:04;42.30;;;23.93;;
75450;SDS011;64029;48.244;9.188;2023-02-11T09:54:35;39.90;;;21.33;;
75450;SDS011;64029;48.244;9.188;2023-02-11T09:57:07;33.17;;;19.67;;
75450;SDS011;64029;48.244;9.188;2023-02-11T09:59:34;37.60;;;19.57;;
75450;SDS011;64029;48.244;9.188;2023-02-11T10:02:03;35.27;;;20.57;;
75450;SDS011;64029;48.244;9.188;2023-02-11T10:04:41;40.27;;;22.20;;
75450;SDS011;64029;48.244;9.188;2023-02-11T10:07:20;33.97;;;17.80;;
75450;SDS011;64029;48.244;9.188;2023-02-11T10:09:57;35.10;;;19.37;;
75450;SDS011;64029;48.244;9.188;2023-02-11T10:12:36;31.53;;;17.43;;
75450;SDS011;64029;48.244;9.188;2023-02-11T10:15:20;33.83;;;17.90;;
75450;SDS011;64029;48.244;9.188;2023-02-11T10:17:58;29.23;;;15.77;;
75450;SDS011;64029;48.244;9.188;2023-02-11T10:20:38;30.43;;;17.33;;
75450;SDS011;64029;48.244;9.188;2023-02-11T10:23:14;25.87;;;15.57;;
75450;SDS011;64029;48.244;9.188;2023-02-11T10:25:45;27.50;;;16.50;;
75450;SDS011;64029;48.244;9.188;2023-02-11T10:28:17;24.90;;;15.20;;
75450;SDS011;64029;48.244;9.188;2023-02-11T10:30:48;27.30;;;17.20;;
75450;SDS011;64029;48.244;9.188;2023-02-11T10:33:22;28.87;;;15.30;;
75450;SDS011;64029;48.244;9.188;2023-02-11T10:35:54;30.37;;;15.90;;
75450;SDS011;64029;48.244;9.188;2023-02-11T10:38:21;26.83;;;16.17;;
75450;SDS011;64029;48.244;9.188;2023-02-11T10:40:48;24.97;;;14.43;;
75450;SDS011;64029;48.244;9.188;2023-02-11T10:43:15;26.50;;;14.10;;
75450;SDS011;64029;48.244;9.188;2023-02-11T10:45:45;23.80;;;14.47;;
75450;SDS011;64029;48.244;9.188;2023-02-11T10:51:07;25.17;;;14.43;;
75450;SDS011;64029;48.244;9.188;2023-02-11T10:53:40;22.03;;;13.33;;
75450;SDS011;64029;48.244;9.188;2023-02-11T10:56:09;23.33;;;14.03;;
75450;SDS011;64029;48.244;9.188;2023-02-11T10:58:39;21.90;;;13.50;;
75450;SDS011;64029;48.244;9.188;2023-02-11T11:01:09;20.80;;;12.70;;
75450;SDS011;64029;48.244;9.188;2023-02-11T11:03:37;18.37;;;12.40;;
75450;SDS011;64029;48.244;9.188;2023-02-11T11:06:11;22.60;;;12.40;;
75450;SDS011;64029;48.244;9.188;2023-02-11T11:08:39;18.50;;;11.87;;
75450;SDS011;64029;48.244;9.188;2023-02-11T11:11:08;19.20;;;11.53;;
75450;SDS011;64029;48.244;9.188;2023-02-11T11:13:37;20.00;;;12.40;;
75450;SDS011;64029;48.244;9.188;2023-02-11T11:16:14;19.57;;;12.63;;
75450;SDS011;64029;48.244;9.188;2023-02-11T11:18:43;19.83;;;12.37;;
75450;SDS011;64029;48.244;9.188;2023-02-11T11:21:14;20.47;;;11.57;;
75450;SDS011;64029;48.244;9.188;2023-02-11T11:23:51;17.20;;;10.20;;
75450;SDS011;64029;48.244;9.188;2023-02-11T11:26:20;17.87;;;10.20;;
75450;SDS011;64029;48.244;9.188;2023-02-11T11:28:52;17.17;;;9.60;;
75450;SDS011;64029;48.244;9.188;2023-02-11T11:31:22;14.27;;;9.83;;
75450;SDS011;64029;48.244;9.188;2023-02-11T11:33:52;13.50;;;9.60;;
75450;SDS011;64029;48.244;9.188;2023-02-11T11:36:24;13.13;;;9.10;;
75450;SDS011;64029;48.244;9.188;2023-02-11T11:38:59;16.90;;;10.13;;
75450;SDS011;64029;48.244;9.188;2023-02-11T11:41:30;17.40;;;10.30;;
75450;SDS011;64029;48.244;9.188;2023-02-11T11:43:59;15.90;;;10.30;;
75450;SDS011;64029;48.244;9.188;2023-02-11T11:46:29;17.97;;;10.07;;
75450;SDS011;64029;48.244;9.188;2023-02-11T11:51:50;18.47;;;9.80;;
75450;SDS011;64029;48.244;9.188;2023-02-11T11:54:23;13.43;;;8.33;;
75450;SDS011;64029;48.244;9.188;2023-02-11T11:56:53;16.33;;;9.57;;
75450;SDS011;64029;48.244;9.188;2023-02-11T11:59:25;13.10;;;9.03;;
75450;SDS011;64029;48.244;9.188;2023-02-11T12:01:58;13.63;;;8.60;;
75450;SDS011;64029;48.244;9.188;2023-02-11T12:04:54;17.70;;;9.10;;
75450;SDS011;64029;48.244;9.188;2023-02-11T12:07:33;14.47;;;9.20;;
75450;SDS011;64029;48.244;9.188;2023-02-11T12:10:16;12.63;;;8.23;;
75450;SDS011;64029;48.244;9.188;2023-02-11T12:13:02;12.30;;;8.50;;
75450;SDS011;64029;48.244;9.188;2023-02-11T12:15:35;11.93;;;8.43;;
75450;SDS011;64029;48.244;9.188;2023-02-11T12:18:15;15.73;;;8.97;;
75450;SDS011;64029;48.244;9.188;2023-02-11T12:21:00;13.40;;;7.80;;
75450;SDS011;64029;48.244;9.188;2023-02-11T12:23:40;14.83;;;8.33;;
75450;SDS011;64029;48.244;9.188;2023-02-11T12:26:18;14.80;;;9.17;;
75450;SDS011;64029;48.244;9.188;2023-02-11T12:28:51;15.00;;;9.57;;
75450;SDS011;64029;48.244;9.188;2023-02-11T12:31:35;13.93;;;9.47;;
75450;SDS011;64029;48.244;9.188;2023-02-11T12:34:26;16.50;;;9.83;;
75450;SDS011;64029;48.244;9.188;2023-02-11T12:37:14;15.50;;;9.23;;
75450;SDS011;64029;48.244;9.188;2023-02-11T12:39:52;14.80;;;9.07;;
75450;SDS011;64029;48.244;9.188;2023-02-11T12:42:37;16.87;;;9.70;;
75450;SDS011;64029;48.244;9.188;2023-02-11T12:45:48;15.53;;;12.63;;
75450;SDS011;64029;48.244;9.188;2023-02-11T12:48:38;16.10;;;10.07;;
75450;SDS011;64029;48.244;9.188;2023-02-11T12:51:29;12.73;;;9.73;;
75450;SDS011;64029;48.244;9.188;2023-02-11T12:54:12;17.07;;;9.83;;
75450;SDS011;64029;48.244;9.188;2023-02-11T12:56:56;13.23;;;8.80;;
75450;SDS011;64029;48.244;9.188;2023-02-11T12:59:30;16.90;;;9.50;;
75450;SDS011;64029;48.244;9.188;2023-02-11T13:02:10;16.37;;;9.60;;
75450;SDS011;64029;48.244;9.188;2023-02-11T13:04:45;14.90;;;10.50;;
75450;SDS011;64029;48.244;9.188;2023-02-11T13:07:18;15.40;;;9.47;;
75450;SDS011;64029;48.244;9.188;2023-02-11T13:09:52;15.10;;;9.10;;
75450;SDS011;64029;48.244;9.188;2023-02-11T13:12:24;14.23;;;9.33;;
75450;SDS011;64029;48.244;9.188;2023-02-11T13:15:13;11.47;;;8.10;;
75450;SDS011;64029;48.244;9.188;2023-02-11T13:17:42;12.20;;;8.10;;
75450;SDS011;64029;48.244;9.188;2023-02-11T13:20:25;14.63;;;9.10;;
75450;SDS011;64029;48.244;9.188;2023-02-11T13:23:00;14.83;;;8.87;;
75450;SDS011;64029;48.244;9.188;2023-02-11T13:25:35;12.57;;;7.70;;
75450;SDS011;64029;48.244;9.188;2023-02-11T13:28:19;16.07;;;8.80;;
75450;SDS011;64029;48.244;9.188;2023-02-11T13:30:53;13.10;;;8.80;;
75450;SDS011;64029;48.244;9.188;2023-02-11T13:33:30;10.10;;;7.73;;
75450;SDS011;64029;48.244;9.188;2023-02-11T13:38:54;10.00;;;6.83;;
75450;SDS011;64029;48.244;9.188;2023-02-11T13:41:25;12.23;;;6.13;;
75450;SDS011;64029;48.244;9.188;2023-02-11T13:46:53;10.90;;;6.87;;
75450;SDS011;64029;48.244;9.188;2023-02-11T13:49:26;7.70;;;5.40;;
75450;SDS011;64029;48.244;9.188;2023-02-11T13:52:00;6.67;;;4.57;;
75450;SDS011;64029;48.244;9.188;2023-02-11T13:54:31;6.60;;;5.10;;
75450;SDS011;64029;48.244;9.188;2023-02-11T14:00:01;7.30;;;4.23;;
75450;SDS011;64029;48.244;9.188;2023-02-11T14:06:11;9.30;;;5.10;;
75450;SDS011;64029;48.244;9.188;2023-02-11T14:09:05;8.00;;;5.70;;
75450;SDS011;64029;48.244;9.188;2023-02-11T14:11:48;7.40;;;5.57;;
75450;SDS011;64029;48.244;9.188;2023-02-11T14:14:17;12.20;;;5.37;;
75450;SDS011;64029;48.244;9.188;2023-02-11T14:19:46;10.17;;;5.93;;
75450;SDS011;64029;48.244;9.188;2023-02-11T14:22:15;11.97;;;5.97;;
75450;SDS011;64029;48.244;9.188;2023-02-11T14:24:46;13.00;;;6.70;;
75450;SDS011;64029;48.244;9.188;2023-02-11T14:27:20;10.17;;;7.23;;
75450;SDS011;64029;48.244;9.188;2023-02-11T14:29:58;9.67;;;5.77;;
75450;SDS011;64029;48.244;9.188;2023-02-11T14:32:43;10.03;;;5.80;;
75450;SDS011;64029;48.244;9.188;2023-02-11T14:35:22;9.40;;;5.47;;
75450;SDS011;64029;48.244;9.188;2023-02-11T14:37:57;8.70;;;4.57;;
75450;SDS011;64029;48.244;9.188;2023-02-11T14:40:30;6.37;;;4.20;;
75450;SDS011;64029;48.244;9.188;2023-02-11T14:43:00;5.43;;;4.03;;
75450;SDS011;64029;48.244;9.188;2023-02-11T14:45:36;4.20;;;3.33;;
75450;SDS011;64029;48.244;9.188;2023-02-11T14:48:05;5.37;;;3.93;;
75450;SDS011;64029;48.244;9.188;2023-02-11T14:50:40;6.60;;;3.50;;
75450;SDS011;64029;48.244;9.188;2023-02-11T14:53:12;6.87;;;3.60;;
75450;SDS011;64029;48.244;9.188;2023-02-11T14:55:42;7.80;;;3.40;;
75450;SDS011;64029;48.244;9.188;2023-02-11T14:58:14;5.33;;;3.90;;
75450;SDS011;64029;48.244;9.188;2023-02-11T15:00:50;8.07;;;4.50;;
75450;SDS011;64029;48.244;9.188;2023-02-11T15:03:28;5.37;;;4.07;;
75450;SDS011;64029;48.244;9.188;2023-02-11T15:06:01;8.63;;;4.17;;
75450;SDS011;64029;48.244;9.188;2023-02-11T15:08:31;4.73;;;4.10;;
75450;SDS011;64029;48.244;9.188;2023-02-11T15:11:01;5.50;;;3.60;;
75450;SDS011;64029;48.244;9.188;2023-02-11T15:13:32;5.93;;;4.77;;
75450;SDS011;64029;48.244;9.188;2023-02-11T15:16:03;8.33;;;4.30;;
75450;SDS011;64029;48.244;9.188;2023-02-11T15:18:35;6.03;;;3.97;;